Time;durP1;ratioP1;P1;durP2;ratioP2;P2;SDS_P1;SDS_P2;PMS_P1;PMS_P2;Temp;Humidity;BMP_temperature;BMP_pressure;BME280_temperature;BME280_humidity;BME280_pressure;Samples;Min_cycle;Max_cycle;Signal;HPM_P1;HPM_P2
2023/02/20 00:02:03;;;;;;;3.53;3.10;;;4.10;67.50;;;;;;5096757;28;20025;-47
2023/02/20 00:04:28;;;;;;;3.55;3.22;;;4.10;67.40;;;;;;5096128;28;20081;-49
2023/02/20 00:06:54;;;;;;;4.13;3.17;;;4.10;67.30;;;;;;5096958;28;20032;-48
2023/02/20 00:09:20;;;;;;;3.60;2.97;;;4.10;67.40;;;;;;5097212;28;20056;-50
2023/02/20 00:11:45;;;;;;;6.40;3.25;;;4.10;67.40;;;;;;5095921;28;20039;-68
2023/02/20 00:14:12;;;;;;;5.07;3.40;;;4.10;67.40;;;;;;5096980;28;20036;-69
2023/02/20 00:16:38;;;;;;;4.38;3.35;;;4.10;67.40;;;;;;5096790;28;20032;-67
2023/02/20 00:19:04;;;;;;;4.43;2.95;;;4.00;67.40;;;;;;5096752;28;20024;-68
2023/02/20 00:21:30;;;;;;;5.32;3.53;;;4.00;67.50;;;;;;5096479;28;20028;-69
2023/02/20 00:23:55;;;;;;;4.45;3.10;;;4.00;67.60;;;;;;5096830;28;20028;-68
2023/02/20 00:26:21;;;;;;;4.15;3.13;;;4.00;67.70;;;;;;5095914;28;20379;-68
2023/02/20 00:28:47;;;;;;;6.38;3.10;;;3.90;67.80;;;;;;5096496;28;20028;-68
2023/02/20 00:31:14;;;;;;;4.22;3.25;;;3.90;67.80;;;;;;5096993;28;20034;-67
2023/02/20 00:33:40;;;;;;;4.43;3.20;;;3.90;68.00;;;;;;5096415;28;20032;-68
2023/02/20 00:36:06;;;;;;;3.63;3.03;;;3.80;68.00;;;;;;5096362;28;20028;-59
2023/02/20 00:38:32;;;;;;;3.85;3.40;;;3.80;68.00;;;;;;5095924;28;20382;-59
2023/02/20 00:40:58;;;;;;;3.45;3.10;;;3.80;68.20;;;;;;5095773;28;20485;-59
2023/02/20 00:43:23;;;;;;;3.45;3.15;;;3.80;68.20;;;;;;5095656;28;20036;-59
2023/02/20 00:45:49;;;;;;;4.85;3.20;;;3.80;68.20;;;;;;5096064;28;20094;-59
2023/02/20 00:48:14;;;;;;;4.97;3.45;;;3.70;68.50;;;;;;5095846;28;20073;-60
2023/02/20 00:50:40;;;;;;;3.85;3.17;;;3.70;68.60;;;;;;5095177;28;20032;-59
2023/02/20 00:53:06;;;;;;;4.82;3.30;;;3.70;68.70;;;;;;5095975;28;20032;-60
2023/02/20 00:55:31;;;;;;;4.30;3.70;;;3.70;68.80;;;;;;5095441;28;20028;-51
2023/02/20 00:57:57;;;;;;;4.63;3.40;;;3.60;68.70;;;;;;5095990;28;20115;-54
2023/02/20 01:03:13;;;;;;;5.45;3.30;;;3.60;68.90;;;;;;4968697;28;20137;-83
2023/02/20 01:05:39;;;;;;;4.47;3.38;;;3.50;69.00;;;;;;4961944;28;20114;-83
2023/02/20 01:08:05;;;;;;;3.38;2.95;;;3.50;69.00;;;;;;4958098;28;20081;-84
2023/02/20 01:10:30;;;;;;;4.68;3.60;;;3.50;69.00;;;;;;4955540;28;20038;-84
2023/02/20 01:12:56;;;;;;;4.30;3.22;;;3.50;68.90;;;;;;4957090;28;20059;-84
2023/02/20 01:15:22;;;;;;;4.13;3.10;;;3.50;69.00;;;;;;4965204;28;20038;-83
2023/02/20 01:17:47;;;;;;;4.20;3.08;;;3.50;69.00;;;;;;4971990;28;20030;-84
2023/02/20 01:20:13;;;;;;;4.03;3.20;;;3.50;69.00;;;;;;4953225;28;20038;-84
2023/02/20 01:22:40;;;;;;;5.22;3.15;;;3.50;68.90;;;;;;4971322;28;20089;-84
2023/02/20 01:25:06;;;;;;;3.58;3.15;;;3.40;68.90;;;;;;4956041;28;20035;-83
2023/02/20 01:27:32;;;;;;;4.85;3.03;;;3.40;69.00;;;;;;4961788;28;20074;-84
2023/02/20 01:29:57;;;;;;;3.70;2.90;;;3.40;69.00;;;;;;4976496;28;20089;-83
2023/02/20 01:32:23;;;;;;;5.32;3.47;;;3.40;69.10;;;;;;4955840;28;20454;-84
2023/02/20 01:34:49;;;;;;;4.68;3.38;;;3.40;69.10;;;;;;4965096;28;20484;-83
2023/02/20 01:37:15;;;;;;;5.05;3.45;;;3.40;69.10;;;;;;4976677;28;20473;-84
2023/02/20 01:39:41;;;;;;;5.32;3.20;;;3.40;69.00;;;;;;4953213;28;20031;-84
2023/02/20 01:42:13;;;;;;;3.53;3.08;;;3.40;69.10;;;;;;4963053;28;20485;-83
2023/02/20 01:44:41;;;;;;;3.17;2.80;;;3.40;69.00;;;;;;4974849;28;20085;-85
2023/02/20 01:47:08;;;;;;;3.85;2.90;;;3.40;69.00;;;;;;4964459;28;20033;-84
2023/02/20 01:49:46;;;;;;;5.25;3.47;;;3.40;68.90;;;;;;4967542;28;20054;-84
2023/02/20 01:52:21;;;;;;;3.92;3.20;;;3.30;68.80;;;;;;4979913;28;20495;-83
2023/02/20 01:55:01;;;;;;;3.75;2.97;;;3.30;68.90;;;;;;4954414;28;20034;-83
2023/02/20 01:57:31;;;;;;;6.68;3.47;;;3.30;68.90;;;;;;4977913;28;20085;-89
2023/02/20 02:00:05;;;;;;;4.03;2.92;;;3.30;68.90;;;;;;4997945;28;20062;-90
2023/02/20 02:02:34;;;;;;;3.78;3.10;;;3.20;68.90;;;;;;4961694;28;20375;-88
2023/02/20 02:05:00;;;;;;;3.40;2.92;;;3.20;69.00;;;;;;4952202;29;20121;-88
2023/02/20 02:07:28;;;;;;;3.83;2.90;;;3.20;68.90;;;;;;4936656;29;20459;-88
2023/02/20 02:10:05;;;;;;;3.22;2.80;;;3.20;68.90;;;;;;4936805;29;20040;-89
2023/02/20 02:12:31;;;;;;;3.75;2.78;;;3.20;69.00;;;;;;4933536;29;20038;-84
2023/02/20 02:14:57;;;;;;;3.15;2.85;;;3.10;69.00;;;;;;4938368;29;20475;-84
2023/02/20 02:17:36;;;;;;;3.33;2.92;;;3.10;68.90;;;;;;4933226;29;20028;-83
2023/02/20 02:20:53;;;;;;;4.03;3.22;;;3.10;69.00;;;;;;4932684;29;20090;-83
2023/02/20 02:23:38;;;;;;;3.53;2.95;;;3.00;69.00;;;;;;4921752;29;20119;-89
2023/02/20 02:26:22;;;;;;;3.13;2.80;;;3.00;69.20;;;;;;4944351;29;20074;-90
2023/02/20 02:29:06;;;;;;;2.70;2.50;;;3.00;69.10;;;;;;4945814;29;20042;-90
2023/02/20 02:31:47;;;;;;;3.35;2.88;;;3.00;69.00;;;;;;4926904;29;20072;-87
2023/02/20 02:34:32;;;;;;;4.07;2.90;;;3.00;69.00;;;;;;4931901;29;20475;-87
2023/02/20 02:37:32;;;;;;;3.40;2.70;;;3.00;69.00;;;;;;4942249;29;20112;-88
2023/02/20 02:40:05;;;;;;;2.90;2.70;;;3.00;68.90;;;;;;4941301;29;20102;-88
2023/02/20 02:43:05;;;;;;;3.90;2.95;;;3.00;68.90;;;;;;4929718;29;20518;-88
2023/02/20 02:45:40;;;;;;;3.25;2.90;;;3.00;68.80;;;;;;4929645;29;20465;-88
2023/02/20 02:48:31;;;;;;;2.70;2.50;;;3.00;68.80;;;;;;4952306;29;20063;-88
2023/02/20 02:51:04;;;;;;;2.72;2.53;;;3.00;68.60;;;;;;4964402;29;20036;-90
2023/02/20 02:53:30;;;;;;;2.60;2.40;;;3.10;68.70;;;;;;4946445;29;20040;-89
2023/02/20 02:55:56;;;;;;;3.42;2.85;;;3.00;68.30;;;;;;4954550;29;20028;-88
2023/02/20 02:58:22;;;;;;;2.80;2.50;;;3.10;68.40;;;;;;4958755;29;20031;-89
2023/02/20 03:01:06;;;;;;;4.40;2.97;;;3.10;68.70;;;;;;4969163;28;20035;-83
2023/02/20 03:03:37;;;;;;;4.65;2.95;;;3.00;68.50;;;;;;4964711;28;20056;-84
2023/02/20 03:06:05;;;;;;;3.38;2.90;;;3.00;68.50;;;;;;4988655;28;20027;-84
2023/02/20 03:08:39;;;;;;;4.00;2.78;;;3.00;68.60;;;;;;4959638;28;20086;-84
2023/02/20 03:11:04;;;;;;;2.80;2.60;;;3.00;68.50;;;;;;4969552;28;20077;-88
2023/02/20 03:16:28;;;;;;;;;;;3.00;68.50;;;;;;4985154;28;20070;-89
2023/02/20 03:18:58;;;;;;;3.20;2.90;;;2.90;68.50;;;;;;4975363;28;20004;-89
2023/02/20 03:21:27;;;;;;;4.17;3.13;;;2.90;68.50;;;;;;4990226;28;20027;-88
2023/02/20 03:23:57;;;;;;;3.72;2.80;;;2.90;68.50;;;;;;4989868;28;20074;-88
2023/02/20 03:26:30;;;;;;;2.83;2.63;;;2.90;68.70;;;;;;4981686;28;20050;-83
2023/02/20 03:29:02;;;;;;;3.08;2.70;;;2.90;68.70;;;;;;4967527;28;20118;-84
2023/02/20 03:31:38;;;;;;;3.60;2.97;;;2.90;68.70;;;;;;4964729;28;20470;-88
2023/02/20 03:45:45;;;;;;;3.42;2.90;;;2.80;68.80;;;;;;4969358;28;20089;-89
2023/02/20 03:48:19;;;;;;;4.47;3.08;;;2.70;68.90;;;;;;4972703;28;20015;-89
2023/02/20 03:53:29;;;;;;;3.38;2.85;;;2.70;68.90;;;;;;4984510;28;20037;-89
2023/02/20 03:55:58;;;;;;;4.43;3.08;;;2.70;68.90;;;;;;4971958;28;20393;-87
2023/02/20 03:58:26;;;;;;;4.05;2.90;;;2.70;68.90;;;;;;4958490;28;20069;-87
2023/02/20 04:00:57;;;;;;;3.90;3.13;;;2.70;68.80;;;;;;4970170;28;20070;-89
2023/02/20 04:03:27;;;;;;;5.32;3.00;;;2.70;68.80;;;;;;4974034;28;20038;-88
2023/02/20 04:05:55;;;;;;;4.22;2.80;;;2.70;68.70;;;;;;4979639;28;20030;-88
2023/02/20 04:09:03;;;;;;;3.40;2.85;;;2.70;68.60;;;;;;4982238;28;20027;-88
2023/02/20 04:12:11;;;;;;;3.42;2.97;;;2.70;68.70;;;;;;4951460;28;20160;-89
2023/02/20 04:14:37;;;;;;;4.47;3.28;;;2.60;68.50;;;;;;4924013;28;20089;-89
2023/02/20 04:17:11;;;;;;;4.03;2.90;;;2.60;68.50;;;;;;4961800;28;20636;-89
2023/02/20 04:19:36;;;;;;;3.13;2.80;;;2.60;68.70;;;;;;4964469;28;20030;-88
2023/02/20 04:22:06;;;;;;;4.40;2.90;;;2.60;68.60;;;;;;4964667;28;20038;-89
2023/02/20 04:24:40;;;;;;;3.95;3.00;;;2.60;68.60;;;;;;4973886;28;20058;-89
2023/02/20 04:27:07;;;;;;;4.93;3.10;;;2.50;68.60;;;;;;4972839;28;20126;-83
2023/02/20 04:29:33;;;;;;;3.83;3.05;;;2.50;68.60;;;;;;4957734;28;20117;-83
2023/02/20 04:31:59;;;;;;;3.88;2.90;;;2.50;68.60;;;;;;4974478;28;20063;-87
2023/02/20 04:34:24;;;;;;;3.90;2.85;;;2.50;68.60;;;;;;4973147;28;20034;-87
2023/02/20 04:37:02;;;;;;;3.88;2.90;;;2.50;68.60;;;;;;4969416;28;20031;-87
2023/02/20 04:39:27;;;;;;;3.75;2.80;;;2.40;68.80;;;;;;4974341;28;20038;-88
2023/02/20 04:41:53;;;;;;;3.63;3.20;;;2.40;68.70;;;;;;4974144;28;20035;-83
2023/02/20 04:44:30;;;;;;;6.10;3.15;;;2.40;68.80;;;;;;4970778;28;20046;-86
2023/02/20 04:46:57;;;;;;;5.00;3.33;;;2.40;68.70;;;;;;4961244;28;20444;-89
2023/02/20 04:49:23;;;;;;;4.55;3.50;;;2.40;68.80;;;;;;4956810;28;20019;-88
2023/02/20 04:51:49;;;;;;;4.45;3.28;;;2.30;68.70;;;;;;4957052;28;20038;-83
2023/02/20 04:54:15;;;;;;;3.88;3.17;;;2.30;68.80;;;;;;4961981;28;20479;-83
2023/02/20 04:56:40;;;;;;;5.65;3.40;;;2.30;68.80;;;;;;4972125;28;20041;-88
2023/02/20 04:59:06;;;;;;;3.25;2.90;;;2.30;68.80;;;;;;4989045;28;20038;-89
2023/02/20 05:01:32;;;;;;;3.22;2.90;;;2.30;68.80;;;;;;5002229;28;20486;-88
2023/02/20 05:03:57;;;;;;;5.35;3.35;;;2.30;68.80;;;;;;4989836;28;20039;-88
2023/02/20 05:06:23;;;;;;;5.50;3.15;;;2.30;68.70;;;;;;4992954;28;20026;-89
2023/02/20 05:08:49;;;;;;;5.72;3.30;;;2.30;68.70;;;;;;5005929;28;20080;-90
2023/02/20 05:11:14;;;;;;;3.20;2.80;;;2.30;68.70;;;;;;4967186;28;20051;-88
2023/02/20 05:13:40;;;;;;;3.25;2.95;;;2.30;68.80;;;;;;4974437;28;20317;-89
2023/02/20 05:16:07;;;;;;;4.72;3.00;;;2.30;68.80;;;;;;4967028;28;20039;-89
2023/02/20 05:18:33;;;;;;;3.60;3.00;;;2.30;69.40;;;;;;4959609;28;20034;-88
2023/02/20 05:23:46;;;;;;;4.05;3.20;;;2.30;68.70;;;;;;4980305;28;20077;-90
2023/02/20 05:26:16;;;;;;;4.28;2.95;;;2.30;68.80;;;;;;4975946;28;20087;-90
2023/02/20 05:28:42;;;;;;;3.28;3.00;;;2.30;68.70;;;;;;4961508;28;20064;-90
2023/02/20 05:31:08;;;;;;;3.50;3.20;;;2.30;68.70;;;;;;4974607;28;20054;-90
2023/02/20 05:33:34;;;;;;;4.05;3.35;;;2.30;68.60;;;;;;4964539;28;20418;-90
2023/02/20 05:36:00;;;;;;;4.40;3.60;;;2.30;68.50;;;;;;4956085;28;20027;-90
2023/02/20 05:38:26;;;;;;;3.90;3.10;;;2.40;68.50;;;;;;4967426;28;20034;-90
2023/02/20 05:40:52;;;;;;;4.45;3.15;;;2.40;68.40;;;;;;4978607;28;20055;-89
2023/02/20 05:43:17;;;;;;;3.83;3.33;;;2.40;68.20;;;;;;4971506;28;20038;-90
2023/02/20 05:45:43;;;;;;;3.88;3.40;;;2.50;68.20;;;;;;4960219;28;20061;-90
2023/02/20 05:48:11;;;;;;;4.72;3.60;;;2.50;68.00;;;;;;4965723;28;20037;-90
2023/02/20 05:50:37;;;;;;;3.17;2.88;;;2.50;67.80;;;;;;4954691;28;20242;-89
2023/02/20 05:53:03;;;;;;;3.95;3.28;;;2.60;67.90;;;;;;4963128;28;20049;-90
2023/02/20 05:55:29;;;;;;;5.78;3.00;;;2.70;67.80;;;;;;4957237;28;20061;-89
2023/02/20 05:57:56;;;;;;;3.25;2.95;;;2.70;67.40;;;;;;4979140;28;20031;-90
2023/02/20 06:00:22;;;;;;;5.60;3.42;;;2.80;67.30;;;;;;4976547;28;20027;-90
2023/02/20 06:02:48;;;;;;;3.72;3.15;;;2.80;67.00;;;;;;4960053;28;20047;-89
2023/02/20 06:05:14;;;;;;;5.45;3.30;;;2.90;66.90;;;;;;4991268;28;20034;-90
2023/02/20 06:07:42;;;;;;;3.10;2.60;;;3.00;66.60;;;;;;4971313;28;20053;-90
2023/02/20 06:10:08;;;;;;;3.95;2.90;;;3.00;66.50;;;;;;4961207;28;20121;-90
2023/02/20 06:12:34;;;;;;;3.63;2.85;;;3.10;66.20;;;;;;4979069;28;20108;-91
2023/02/20 06:14:59;;;;;;;3.55;2.85;;;3.10;66.00;;;;;;4989943;28;20518;-91
2023/02/20 06:17:25;;;;;;;3.95;2.78;;;3.20;65.90;;;;;;4986088;28;20042;-90
2023/02/20 06:19:51;;;;;;;4.00;2.83;;;3.30;65.80;;;;;;4971362;28;20023;-90
2023/02/20 06:22:17;;;;;;;2.78;2.50;;;3.40;65.70;;;;;;4970445;28;20053;-90
2023/02/20 06:24:46;;;;;;;5.72;2.80;;;3.50;65.40;;;;;;4978056;28;20031;-90
2023/02/20 06:27:14;;;;;;;3.45;2.55;;;3.60;64.70;;;;;;4974813;28;20023;-90
2023/02/20 06:29:39;;;;;;;2.63;2.40;;;3.70;64.40;;;;;;4993362;28;20058;-89
2023/02/20 06:32:05;;;;;;;4.50;2.80;;;3.70;64.10;;;;;;4972385;28;20028;-89
2023/02/20 06:34:32;;;;;;;3.13;2.70;;;3.90;64.00;;;;;;4967624;28;20415;-89
2023/02/20 06:37:01;;;;;;;2.45;2.25;;;3.90;63.80;;;;;;4980328;28;20149;-90
2023/02/20 06:39:28;;;;;;;3.67;2.92;;;4.00;63.50;;;;;;4982441;28;20035;-90
2023/02/20 06:41:54;;;;;;;3.03;2.50;;;4.10;63.20;;;;;;4962404;28;20389;-84
2023/02/20 06:44:20;;;;;;;3.15;2.63;;;4.10;62.80;;;;;;4954262;28;20031;-85
2023/02/20 06:46:46;;;;;;;2.67;2.45;;;4.10;62.60;;;;;;4962392;28;20031;-89
2023/02/20 06:49:12;;;;;;;2.53;2.33;;;4.20;62.60;;;;;;4963239;28;20038;-88
2023/02/20 06:51:39;;;;;;;3.13;2.60;;;4.20;62.20;;;;;;4974189;28;20113;-91
2023/02/20 06:54:06;;;;;;;2.63;2.40;;;4.20;62.20;;;;;;4959908;28;20039;-89
2023/02/20 06:56:33;;;;;;;2.70;2.50;;;4.20;62.30;;;;;;4997040;23;20064;-62
2023/02/20 06:59:01;;;;;;;2.50;2.30;;;4.20;62.10;;;;;;5001150;28;20048;-62
2023/02/20 07:01:29;;;;;;;2.90;2.42;;;4.30;62.20;;;;;;5003022;28;20372;-61
2023/02/20 07:03:57;;;;;;;3.08;2.33;;;4.30;62.00;;;;;;5005786;28;21663;-63
2023/02/20 07:06:24;;;;;;;2.50;2.30;;;4.40;61.50;;;;;;4990107;28;22270;-62
2023/02/20 07:08:50;;;;;;;2.60;2.40;;;4.40;61.30;;;;;;4993346;28;20042;-62
2023/02/20 07:11:19;;;;;;;2.75;2.35;;;4.30;61.30;;;;;;5000327;28;20083;-64
2023/02/20 07:13:45;;;;;;;4.30;2.90;;;4.40;61.50;;;;;;4994082;28;20045;-62
2023/02/20 07:16:11;;;;;;;3.40;2.22;;;4.40;61.40;;;;;;5003385;28;20067;-60
2023/02/20 07:18:36;;;;;;;3.17;2.50;;;4.30;60.70;;;;;;4994933;28;20054;-60
2023/02/20 07:21:02;;;;;;;4.43;2.55;;;4.30;60.60;;;;;;4994452;28;20057;-59
2023/02/20 07:23:28;;;;;;;3.83;2.40;;;4.30;60.50;;;;;;4994178;28;20040;-60
2023/02/20 07:25:54;;;;;;;4.65;2.80;;;4.30;60.00;;;;;;4995275;28;20034;-60
2023/02/20 07:28:20;;;;;;;3.17;2.50;;;4.20;59.90;;;;;;5001024;28;20045;-57
2023/02/20 07:30:49;;;;;;;3.40;2.60;;;4.30;60.10;;;;;;4997411;28;20037;-57
2023/02/20 07:33:16;;;;;;;3.72;2.60;;;4.30;60.20;;;;;;5003338;28;20423;-56
2023/02/20 07:35:42;;;;;;;3.92;2.85;;;4.20;59.70;;;;;;5000337;28;20033;-58
2023/02/20 07:38:08;;;;;;;2.75;2.28;;;4.20;59.70;;;;;;4991682;28;20041;-55
2023/02/20 07:40:33;;;;;;;5.00;2.60;;;4.20;59.70;;;;;;5004116;28;20033;-61
2023/02/20 07:42:59;;;;;;;3.03;2.40;;;4.20;59.90;;;;;;4997189;28;20033;-56
2023/02/20 07:45:25;;;;;;;2.92;2.55;;;4.30;60.00;;;;;;4997785;28;20046;-57
2023/02/20 07:47:51;;;;;;;3.25;2.70;;;4.30;59.80;;;;;;5002423;28;20038;-67
2023/02/20 07:50:16;;;;;;;4.10;2.92;;;4.30;59.70;;;;;;4998813;28;20061;-63
2023/02/20 07:52:43;;;;;;;3.20;2.65;;;4.20;59.60;;;;;;4999759;28;20030;-59
2023/02/20 07:55:13;;;;;;;2.78;2.50;;;4.20;59.70;;;;;;4997944;28;20033;-68
2023/02/20 07:57:39;;;;;;;3.38;2.33;;;4.20;59.60;;;;;;4989211;28;20042;-65
2023/02/20 08:00:05;;;;;;;2.80;2.40;;;4.20;59.60;;;;;;4982635;28;20044;-61
2023/02/20 08:02:31;;;;;;;3.00;2.40;;;4.30;59.80;;;;;;4984227;28;20396;-60
2023/02/20 08:04:57;;;;;;;2.85;2.53;;;4.20;60.40;;;;;;4994391;28;20042;-60
2023/02/20 08:07:22;;;;;;;3.53;2.90;;;4.20;59.80;;;;;;4988758;28;20048;-62
2023/02/20 08:09:48;;;;;;;3.15;2.33;;;4.20;59.70;;;;;;4998837;28;20026;-66
2023/02/20 08:12:14;;;;;;;2.92;2.45;;;4.30;59.70;;;;;;4987945;28;20058;-60
2023/02/20 08:14:40;;;;;;;2.97;2.67;;;4.20;59.70;;;;;;5004207;28;20044;-63
2023/02/20 08:17:06;;;;;;;4.57;2.78;;;4.40;60.00;;;;;;4995656;28;20748;-65
2023/02/20 08:19:31;;;;;;;3.67;2.33;;;4.40;59.90;;;;;;4986512;28;20168;-68
2023/02/20 08:21:57;;;;;;;2.78;2.40;;;4.50;59.60;;;;;;4979540;28;21429;-62
2023/02/20 08:24:23;;;;;;;4.78;2.80;;;4.50;59.50;;;;;;4995923;28;20065;-66
2023/02/20 08:26:48;;;;;;;2.40;2.20;;;4.50;59.10;;;;;;4994232;28;20034;-56
2023/02/20 08:29:16;;;;;;;3.97;2.40;;;4.50;59.20;;;;;;4990357;28;20041;-69
2023/02/20 08:31:42;;;;;;;3.38;2.17;;;4.60;59.10;;;;;;4986164;28;20022;-68
2023/02/20 08:34:08;;;;;;;3.67;2.63;;;4.60;58.70;;;;;;4988313;28;20065;-61
2023/02/20 08:36:34;;;;;;;3.20;2.40;;;4.60;58.60;;;;;;4987179;28;20032;-61
2023/02/20 08:38:59;;;;;;;2.35;2.10;;;4.70;58.40;;;;;;4981654;28;20029;-59
2023/02/20 08:41:26;;;;;;;2.50;2.17;;;4.70;58.00;;;;;;4988624;28;20092;-61
2023/02/20 08:43:51;;;;;;;2.88;2.38;;;4.70;58.20;;;;;;4974504;28;20050;-61
2023/02/20 08:46:17;;;;;;;4.15;2.70;;;4.70;58.00;;;;;;4983471;28;20041;-60
2023/02/20 08:48:44;;;;;;;2.40;2.20;;;4.70;57.50;;;;;;4976887;28;20034;-61
2023/02/20 08:51:09;;;;;;;3.40;2.15;;;4.70;57.30;;;;;;4988866;28;20069;-59
2023/02/20 08:53:37;;;;;;;3.00;2.40;;;4.60;57.50;;;;;;4995148;28;20640;-60
2023/02/20 08:56:03;;;;;;;2.60;2.40;;;4.60;57.40;;;;;;4987374;28;20033;-59
2023/02/20 08:58:29;;;;;;;3.65;2.50;;;4.60;57.50;;;;;;4991436;28;20657;-60
2023/02/20 09:00:55;;;;;;;2.42;2.20;;;4.60;57.20;;;;;;4986903;28;20061;-58
2023/02/20 09:03:21;;;;;;;3.15;2.42;;;4.60;57.10;;;;;;4984002;28;20034;-62
2023/02/20 09:05:47;;;;;;;2.38;2.15;;;4.60;57.10;;;;;;4979952;28;20128;-62
2023/02/20 09:08:13;;;;;;;3.03;2.47;;;4.70;57.40;;;;;;4976171;28;20699;-61
2023/02/20 09:10:39;;;;;;;2.78;2.20;;;4.70;57.50;;;;;;4969203;28;20196;-60
2023/02/20 09:13:04;;;;;;;3.08;2.22;;;4.70;56.80;;;;;;4970047;28;20147;-64
2023/02/20 09:15:34;;;;;;;2.20;2.00;;;4.70;56.80;;;;;;4986506;28;20072;-61
2023/02/20 09:18:00;;;;;;;2.47;2.17;;;4.70;57.10;;;;;;4970351;28;20026;-62
2023/02/20 09:20:26;;;;;;;2.78;2.22;;;4.70;57.20;;;;;;4982307;28;20117;-60
2023/02/20 09:22:57;;;;;;;3.20;2.30;;;4.70;57.10;;;;;;4970037;28;20030;-62
2023/02/20 09:25:23;;;;;;;2.45;2.22;;;4.70;56.90;;;;;;4976432;28;20081;-61
2023/02/20 09:27:49;;;;;;;2.63;2.20;;;4.70;56.90;;;;;;4981192;28;20124;-61
2023/02/20 09:30:18;;;;;;;3.28;2.33;;;4.70;56.70;;;;;;4962998;28;20034;-62
2023/02/20 09:32:46;;;;;;;2.80;2.22;;;4.70;56.70;;;;;;4986532;28;20216;-63
2023/02/20 09:35:18;;;;;;;3.20;2.45;;;4.80;56.90;;;;;;4971729;28;20038;-57
2023/02/20 09:37:44;;;;;;;3.78;2.40;;;4.80;56.60;;;;;;4973567;28;20021;-52
2023/02/20 09:40:10;;;;;;;3.42;2.58;;;4.90;56.20;;;;;;4974110;28;20149;-58
2023/02/20 09:42:42;;;;;;;2.92;2.40;;;4.90;56.40;;;;;;4979503;28;21360;-58
2023/02/20 09:45:15;;;;;;;;;;;5.00;56.30;;;;;;4988390;28;20046;-57
2023/02/20 09:47:58;;;;;;;3.17;2.35;;;5.00;56.40;;;;;;4977783;28;20008;-59
2023/02/20 09:50:36;;;;;;;2.03;1.80;;;5.00;56.10;;;;;;4976320;28;20707;-58
2023/02/20 09:53:13;;;;;;;4.22;2.50;;;5.10;56.20;;;;;;5001098;28;20037;-63
2023/02/20 09:55:40;;;;;;;2.40;2.20;;;5.10;56.10;;;;;;4978743;28;20164;-63
2023/02/20 09:58:11;;;;;;;3.28;2.70;;;5.10;56.00;;;;;;4984921;28;20050;-59
2023/02/20 10:00:38;;;;;;;2.38;2.17;;;5.10;55.60;;;;;;4975515;28;20046;-60
2023/02/20 10:03:43;;;;;;;2.90;2.58;;;5.10;55.80;;;;;;4965841;28;20085;-57
2023/02/20 10:06:17;;;;;;;2.75;2.30;;;5.10;55.40;;;;;;4967173;28;20052;-53
2023/02/20 10:08:46;;;;;;;3.17;2.50;;;5.10;55.30;;;;;;4980123;28;20438;-61
2023/02/20 10:11:20;;;;;;;4.97;2.60;;;5.20;55.00;;;;;;4981718;28;20795;-61
2023/02/20 10:14:17;;;;;;;2.83;2.40;;;5.20;54.70;;;;;;4986892;28;20042;-55
2023/02/20 10:16:49;;;;;;;3.47;2.30;;;5.20;54.30;;;;;;4984537;28;20041;-59
2023/02/20 10:19:23;;;;;;;3.97;2.70;;;5.20;54.50;;;;;;4980935;28;20038;-56
2023/02/20 10:22:31;;;;;;;2.60;2.22;;;5.20;54.60;;;;;;4983092;28;20066;-58
2023/02/20 10:25:17;;;;;;;3.60;2.50;;;5.20;54.20;;;;;;4941647;28;20042;-60
2023/02/20 10:28:07;;;;;;;2.58;2.35;;;5.20;54.10;;;;;;4979582;28;20038;-61
2023/02/20 10:30:41;;;;;;;3.58;2.30;;;5.20;54.30;;;;;;4994633;28;20033;-62
2023/02/20 10:33:34;;;;;;;2.47;2.05;;;5.20;54.00;;;;;;4991897;28;20037;-60
2023/02/20 10:36:06;;;;;;;4.28;2.38;;;5.20;54.70;;;;;;4986669;28;20217;-60
2023/02/20 10:38:41;;;;;;;2.80;2.20;;;5.20;54.80;;;;;;5000350;28;20087;-59
2023/02/20 10:41:22;;;;;;;3.38;2.50;;;5.20;54.60;;;;;;4995368;28;20026;-55
2023/02/20 10:44:01;;;;;;;3.38;2.47;;;5.20;54.30;;;;;;4994041;28;20038;-59
2023/02/20 10:46:44;;;;;;;3.90;2.40;;;5.20;54.00;;;;;;4984036;28;20121;-60
2023/02/20 10:49:26;;;;;;;3.13;2.38;;;5.20;54.20;;;;;;4989725;28;20030;-60
2023/02/20 10:51:58;;;;;;;2.45;2.13;;;5.20;53.50;;;;;;4980483;28;20109;-57
2023/02/20 10:54:41;;;;;;;4.00;2.50;;;5.20;53.60;;;;;;4973087;28;20037;-57
2023/02/20 10:57:16;;;;;;;2.88;2.17;;;5.10;53.70;;;;;;4979837;28;20054;-61
2023/02/20 10:59:58;;;;;;;2.47;2.28;;;5.10;53.90;;;;;;4992925;28;20176;-61
2023/02/20 11:02:29;;;;;;;3.15;2.40;;;5.20;54.00;;;;;;4980424;28;20134;-58
2023/02/20 11:05:10;;;;;;;;;;;5.20;54.10;;;;;;4988141;28;20112;-58
2023/02/20 11:07:35;;;;;;;2.85;2.30;;;5.30;53.90;;;;;;4990906;28;19924;-58
2023/02/20 11:10:02;;;;;;;2.75;2.40;;;5.30;54.20;;;;;;4990664;28;20033;-57
2023/02/20 11:12:50;;;;;;;3.08;2.60;;;5.30;54.10;;;;;;4990241;28;20034;-59
2023/02/20 11:15:20;;;;;;;3.22;2.42;;;5.30;54.40;;;;;;4995390;28;20050;-61
2023/02/20 11:17:50;;;;;;;2.88;2.35;;;5.30;54.30;;;;;;4996309;28;21288;-60
2023/02/20 11:20:31;;;;;;;3.35;2.55;;;5.30;54.40;;;;;;4995251;28;20030;-58
2023/02/20 11:22:58;;;;;;;3.95;2.75;;;5.30;54.30;;;;;;4991703;28;20033;-60
2023/02/20 11:25:34;;;;;;;3.47;2.80;;;5.30;54.30;;;;;;4981140;28;20046;-59
2023/02/20 11:28:18;;;;;;;4.22;3.00;;;5.40;54.00;;;;;;4981993;28;20550;-57
2023/02/20 11:30:47;;;;;;;4.68;2.90;;;5.30;53.50;;;;;;4997313;28;20478;-58
2023/02/20 11:33:22;;;;;;;3.63;2.53;;;5.30;53.50;;;;;;4996860;28;20065;-60
2023/02/20 11:36:07;;;;;;;3.22;2.35;;;5.30;53.70;;;;;;4990881;28;20034;-56
2023/02/20 11:38:35;;;;;;;5.10;2.80;;;5.30;54.20;;;;;;4996498;28;20033;-61
2023/02/20 11:41:07;;;;;;;3.60;2.50;;;5.30;53.50;;;;;;4999506;28;20036;-61
2023/02/20 11:43:42;;;;;;;3.60;2.72;;;5.30;53.80;;;;;;4997225;28;20094;-62
2023/02/20 11:46:11;;;;;;;3.80;2.58;;;5.30;53.80;;;;;;4986184;28;20057;-63
2023/02/20 11:48:37;;;;;;;2.60;2.40;;;5.30;53.80;;;;;;4998099;28;20025;-60
2023/02/20 11:51:03;;;;;;;4.45;2.65;;;5.20;53.30;;;;;;4997403;28;20037;-62
2023/02/20 11:53:31;;;;;;;3.10;2.67;;;5.20;53.00;;;;;;5004235;28;20076;-62
2023/02/20 11:56:09;;;;;;;2.88;2.58;;;5.20;52.90;;;;;;4994275;28;20026;-62
2023/02/20 11:58:35;;;;;;;4.93;2.38;;;5.20;53.00;;;;;;4999177;28;20040;-61
2023/02/20 12:01:01;;;;;;;2.50;2.30;;;5.20;53.00;;;;;;4999212;28;20500;-63
2023/02/20 12:03:31;;;;;;;2.97;2.45;;;5.20;53.00;;;;;;4996804;28;20061;-63
2023/02/20 12:05:58;;;;;;;2.65;2.17;;;5.20;52.70;;;;;;4993072;28;20726;-64
2023/02/20 12:09:02;;;;;;;2.63;2.33;;;5.20;52.40;;;;;;4999304;28;20669;-64
2023/02/20 12:11:28;;;;;;;2.90;2.38;;;5.20;52.20;;;;;;4995627;28;20029;-63
2023/02/20 12:13:58;;;;;;;4.90;2.63;;;5.30;52.70;;;;;;4985325;28;20293;-61
2023/02/20 12:16:33;;;;;;;4.05;2.20;;;5.30;52.60;;;;;;4985480;28;20030;-60
2023/02/20 12:18:58;;;;;;;5.22;2.63;;;5.40;52.30;;;;;;4984340;28;20038;-62
2023/02/20 12:21:31;;;;;;;3.90;2.50;;;5.30;52.10;;;;;;4986978;28;20539;-62
2023/02/20 12:24:13;;;;;;;3.17;2.40;;;5.40;52.30;;;;;;4994664;28;20046;-63
2023/02/20 12:26:58;;;;;;;4.97;2.70;;;5.50;52.60;;;;;;4985652;28;20467;-58
2023/02/20 12:29:34;;;;;;;3.80;2.70;;;5.40;52.00;;;;;;4988119;28;20076;-61
2023/02/20 12:32:02;;;;;;;5.72;3.00;;;5.40;52.40;;;;;;4990329;28;20116;-64
2023/02/20 12:34:47;;;;;;;3.17;2.70;;;5.40;52.80;;;;;;4989295;28;20104;-61
2023/02/20 12:37:26;;;;;;;4.78;2.85;;;5.30;52.80;;;;;;4998176;28;20037;-63
2023/02/20 12:40:10;;;;;;;3.25;2.70;;;5.30;53.10;;;;;;4992122;28;20075;-58
2023/02/20 12:42:48;;;;;;;3.38;2.70;;;5.30;53.30;;;;;;4991609;28;20030;-62
2023/02/20 12:45:43;;;;;;;3.95;2.75;;;5.30;53.20;;;;;;4995589;28;20032;-62
2023/02/20 12:48:37;;;;;;;4.03;3.20;;;5.20;54.10;;;;;;4956952;28;20501;-60
2023/02/20 12:51:42;;;;;;;5.20;2.80;;;5.30;53.70;;;;;;4984227;28;20061;-59
2023/02/20 12:54:35;;;;;;;3.17;2.67;;;5.30;53.90;;;;;;4982485;28;20042;-59
2023/02/20 12:57:11;;;;;;;5.25;2.95;;;5.30;54.00;;;;;;4987239;28;20176;-60
2023/02/20 12:59:59;;;;;;;4.25;2.90;;;5.30;54.00;;;;;;4990064;28;20034;-59
2023/02/20 13:02:45;;;;;;;3.65;2.85;;;5.40;54.00;;;;;;4987245;28;20033;-54
2023/02/20 13:05:15;;;;;;;4.05;3.22;;;5.40;54.10;;;;;;4986205;28;20037;-56
2023/02/20 13:07:46;;;;;;;3.60;2.92;;;5.40;54.10;;;;;;4990675;28;20065;-62
2023/02/20 13:10:23;;;;;;;5.15;3.38;;;5.40;54.10;;;;;;4993135;28;20076;-65
2023/02/20 13:12:50;;;;;;;4.50;3.22;;;5.40;54.10;;;;;;4991393;28;20179;-55
2023/02/20 13:15:37;;;;;;;4.03;3.08;;;5.30;54.10;;;;;;4987808;28;20184;-59
2023/02/20 13:18:33;;;;;;;4.07;2.90;;;5.30;54.20;;;;;;4984378;28;20026;-59
2023/02/20 13:21:13;;;;;;;4.10;2.92;;;5.30;54.20;;;;;;4990934;28;20030;-59
2023/02/20 13:23:39;;;;;;;4.25;3.28;;;5.40;54.10;;;;;;4987064;28;20396;-61
2023/02/20 13:26:33;;;;;;;3.55;2.92;;;5.40;54.20;;;;;;4991128;28;21092;-59
2023/02/20 13:29:17;;;;;;;3.88;2.95;;;5.40;54.00;;;;;;4989229;28;20062;-60
2023/02/20 13:31:48;;;;;;;3.53;2.70;;;5.50;54.00;;;;;;4987939;28;20156;-60
2023/02/20 13:34:13;;;;;;;3.53;2.83;;;5.50;54.10;;;;;;4989401;28;20130;-60
2023/02/20 13:36:41;;;;;;;4.07;2.95;;;5.50;54.20;;;;;;4977287;28;20025;-60
2023/02/20 13:39:18;;;;;;;4.65;3.38;;;5.50;54.20;;;;;;4981680;28;20407;-58
2023/02/20 13:41:53;;;;;;;2.90;2.67;;;5.50;54.20;;;;;;4985201;28;20080;-59